»·PEaware :: N911VU KLAX-KSNA

N911VU :: KLAX-KSNA

FLIGHT INFORMATION

Flight Status: Arrived
Operator: Privately registered:
United States
More flights under this callsign
Pilot: Austin P. (20876)
Aircraft: SOCATA TBM-900
(TBM9)
More flights by this aircraft type
Origin: KLAX Los Angeles Intl
United States
Destination: KSNA John Wayne-Orange Co
United States
More flights between these airports :: More routes between these airports
Route: SLI8 SLI
File this flight plan on PilotEdge
Remarks:
Altitude:
(Current/Filed)
5,000ft
Speed:
(Current/Filed)
220kts
Departed: 05-Dec-18 12:21 PM
Arrived: 05-Dec-18 12:46 PM
Distance/Time
Traveled:
31nm/0:25
Distance/Time
To Go:
Arrived

Flight Plot

Page will automatically refresh every two minutes.

Flight plan parsing failed; only flown route is shown


Map Options




Map Legend


Flown Route
Filed Route
Departure Airport
Arrival Airport
Navaid (VOR, NDB)
Fix

Horizontal Profiles

Position Reports

Time Latitude Longitude Heading Altitude Ground
Speed
05-Dec-18 11:47 33.933689 -118.398867 357 109ft 0kts
05-Dec-18 11:48 33.933689 -118.398867 357 109ft 0kts
05-Dec-18 11:49 33.933689 -118.398867 357 109ft 0kts
05-Dec-18 11:50 33.933689 -118.398867 357 109ft 0kts
05-Dec-18 11:51 33.933689 -118.398867 357 109ft 0kts
05-Dec-18 11:52 33.933689 -118.398867 357 109ft 0kts
05-Dec-18 11:53 33.933689 -118.398867 357 109ft 0kts
05-Dec-18 11:54 33.933689 -118.398867 357 109ft 0kts
05-Dec-18 11:55 33.933689 -118.398867 357 109ft 0kts
05-Dec-18 11:56 33.933689 -118.398867 357 109ft 0kts
05-Dec-18 11:57 33.933689 -118.398867 357 109ft 0kts
05-Dec-18 11:58 33.933689 -118.398867 357 109ft 0kts
05-Dec-18 11:59 33.933689 -118.398867 357 109ft 0kts
05-Dec-18 12:00 33.933689 -118.398867 357 109ft 0kts
05-Dec-18 12:01 33.933689 -118.398867 357 109ft 0kts
05-Dec-18 12:02 33.933689 -118.398867 357 109ft 0kts
05-Dec-18 12:03 33.933689 -118.398867 357 109ft 0kts
05-Dec-18 12:04 33.933690 -118.398867 357 109ft 0kts
05-Dec-18 12:05 33.933690 -118.398867 357 109ft 0kts
05-Dec-18 12:06 33.933690 -118.398867 357 109ft 0kts
05-Dec-18 12:07 33.933690 -118.398867 357 109ft 0kts
05-Dec-18 12:08 33.933690 -118.398867 357 109ft 0kts
05-Dec-18 12:09 33.933696 -118.398868 357 109ft 0kts
05-Dec-18 12:10 33.933698 -118.398868 357 109ft 0kts
05-Dec-18 12:11 33.933698 -118.398868 357 109ft 0kts
05-Dec-18 12:12 33.933698 -118.398868 357 109ft 0kts
05-Dec-18 12:13 33.934285 -118.400582 264 113ft 10kts
05-Dec-18 12:14 33.933880 -118.404820 263 118ft 14kts
05-Dec-18 12:15 33.933335 -118.410122 262 121ft 17kts
05-Dec-18 12:16 33.932670 -118.416538 262 116ft 15kts
05-Dec-18 12:17 33.932671 -118.417771 295 115ft 0kts
05-Dec-18 12:18 33.932721 -118.417865 304 115ft 0kts
05-Dec-18 12:19 33.933708 -118.418544 81 114ft 0kts
05-Dec-18 12:20 33.935313 -118.403015 83 722ft 109kts
05-Dec-18 12:21 33.939576 -118.360358 83 1655ft 141kts
05-Dec-18 12:22 33.945374 -118.310619 83 2908ft 149kts
05-Dec-18 12:23 33.940278 -118.266956 133 4382ft 136kts
05-Dec-18 12:24 33.913212 -118.230853 132 5021ft 169kts
05-Dec-18 12:26 33.882837 -118.189617 131 4997ft 181kts
05-Dec-18 12:27 33.846981 -118.140979 131 4993ft 179kts
05-Dec-18 12:28 33.814017 -118.096324 130 5001ft 178kts
05-Dec-18 12:29 33.789347 -118.047061 93 5013ft 179kts
05-Dec-18 12:30 33.807628 -117.998544 60 5010ft 183kts
05-Dec-18 12:31 33.832464 -117.938059 60 4602ft 194kts
05-Dec-18 12:32 33.856264 -117.879859 61 3996ft 192kts
05-Dec-18 12:33 33.879910 -117.821716 61 4000ft 194kts
05-Dec-18 12:34 33.903664 -117.763230 61 4006ft 195kts
05-Dec-18 12:35 33.927639 -117.704245 59 4013ft 196kts
05-Dec-18 12:36 33.972679 -117.669951 26 4021ft 193kts
05-Dec-18 12:37 33.989761 -117.706351 214 4017ft 207kts
05-Dec-18 12:38 33.933740 -117.715642 182 3930ft 208kts
05-Dec-18 12:39 33.879882 -117.740205 207 3510ft 210kts
05-Dec-18 12:40 33.831359 -117.770774 208 3352ft 188kts
05-Dec-18 12:41 33.785768 -117.799490 208 2343ft 176kts
05-Dec-18 12:42 33.750807 -117.821513 208 1575ft 135kts
05-Dec-18 12:43 33.717461 -117.842532 208 864ft 116kts
05-Dec-18 12:44 33.693619 -117.857564 208 346ft 90kts
05-Dec-18 12:45 33.674058 -117.869882 208 59ft 44kts
05-Dec-18 12:46 33.672033 -117.872479 253 59ft 2kts
05-Dec-18 12:46 33.672459 -117.873276 30 59ft 0kts
05-Dec-18 12:48 33.672459 -117.873276 30 59ft 0kts
05-Dec-18 12:48 33.672459 -117.873276 30 59ft 0kts
05-Dec-18 12:49 33.672459 -117.873276 30 59ft 0kts
05-Dec-18 12:51 33.672459 -117.873276 30 59ft 0kts
05-Dec-18 12:51 33.672459 -117.873276 30 59ft 0kts
05-Dec-18 12:52 33.672459 -117.873276 30 59ft 0kts
05-Dec-18 12:53 33.672459 -117.873276 30 59ft 0kts
05-Dec-18 12:54 33.672459 -117.873276 30 59ft 0kts
05-Dec-18 12:55 33.672459 -117.873276 30 59ft 0kts
05-Dec-18 12:56 33.672459 -117.873276 30 59ft 0kts
05-Dec-18 12:57 33.672459 -117.873276 30 59ft 0kts
05-Dec-18 12:58 33.672459 -117.873276 30 59ft 0kts
05-Dec-18 12:59 33.672459 -117.873276 30 59ft 0kts

Navigation Log

Ident Type
Flight plan parsing failed, navigation log unavailable